Terminal Aerodrome Forecast
Issued by NWS

Home | Current Version | Previous Version | Text Only | Print | Product List | Glossary On
Versions: 1 2 3 4 5 6 7 8 9 10 11 12
000
FTUS42 TJSJ 051125
TAFJPS
TAF
TJPS 051125Z 0512/0612 05007KT P6SM FEW030
     FM051330 13012G25KT P6SM FEW030 FEW050
     FM052230 05005KT P6SM SKC
      AMD NOT SKED 0512/0603=

USA.gov is the U.S. government's official web portal to all federal, state and local government web resources and services.